createdAt,value
2022-07-29T00:00:54.975Z,1.20
2022-07-29T00:03:21.344Z,1.30
2022-07-29T00:05:47.775Z,1.20
2022-07-29T00:08:14.152Z,1.70
2022-07-29T00:10:40.590Z,1.30
2022-07-29T00:13:06.939Z,1.25
2022-07-29T00:15:33.366Z,1.27
2022-07-29T00:17:59.716Z,1.63
2022-07-29T00:20:26.036Z,1.20
2022-07-29T00:22:52.898Z,1.38
2022-07-29T00:25:19.160Z,1.45
2022-07-29T00:27:46.990Z,1.30
2022-07-29T00:30:13.359Z,1.20
2022-07-29T00:32:39.816Z,1.30
2022-07-29T00:35:24.984Z,1.30
2022-07-29T00:37:51.262Z,1.48
2022-07-29T00:40:17.588Z,1.50
2022-07-29T00:42:48.379Z,1.40
2022-07-29T00:45:15.019Z,1.50
2022-07-29T00:47:41.325Z,1.50
2022-07-29T00:50:09.302Z,1.50
2022-07-29T00:52:39.516Z,1.20
2022-07-29T00:55:08.785Z,1.27
2022-07-29T00:57:38.812Z,1.60
2022-07-29T01:00:05.969Z,1.47
2022-07-29T01:02:32.378Z,1.40
2022-07-29T01:04:58.793Z,1.67
2022-07-29T01:07:26.545Z,1.40
2022-07-29T01:09:54.432Z,1.77
2022-07-29T01:12:23.947Z,1.50
2022-07-29T01:14:51.116Z,1.30
2022-07-29T01:17:32.852Z,1.38
2022-07-29T01:19:59.291Z,1.60
2022-07-29T01:22:27.576Z,1.60
2022-07-29T01:25:12.637Z,1.40
2022-07-29T01:27:57.239Z,1.30
2022-07-29T01:30:23.848Z,1.52
2022-07-29T01:32:54.416Z,1.70
2022-07-29T01:35:34.009Z,1.42
2022-07-29T01:38:09.157Z,1.55
2022-07-29T01:40:37.818Z,1.60
2022-07-29T01:43:06.903Z,1.40
2022-07-29T01:45:51.771Z,1.80
2022-07-29T01:48:25.639Z,1.70
2022-07-29T01:50:58.413Z,1.70
2022-07-29T01:53:44.936Z,1.67
2022-07-29T01:56:12.028Z,1.50
2022-07-29T01:58:39.881Z,1.60
2022-07-29T02:01:06.167Z,1.55
2022-07-29T02:03:33.347Z,1.60
2022-07-29T02:06:02.034Z,1.40
2022-07-29T02:08:29.113Z,1.60
2022-07-29T02:10:56.276Z,1.45
2022-07-29T02:13:24.523Z,1.60
2022-07-29T02:15:52.116Z,1.48
2022-07-29T02:18:19.479Z,1.50
2022-07-29T02:20:47.797Z,1.73
2022-07-29T02:23:15.284Z,2.15
2022-07-29T02:25:42.711Z,1.80
2022-07-29T02:28:09.511Z,1.65
2022-07-29T02:30:41.464Z,1.98
2022-07-29T02:33:08.830Z,2.00
2022-07-29T02:35:35.337Z,1.95
2022-07-29T02:38:21.706Z,2.20
2022-07-29T02:40:49.282Z,2.20
2022-07-29T02:43:15.876Z,2.00
2022-07-29T02:45:42.944Z,2.00
2022-07-29T02:48:12.776Z,1.90
2022-07-29T02:50:41.827Z,1.87
2022-07-29T02:53:21.860Z,2.00
2022-07-29T02:55:54.333Z,2.17
2022-07-29T02:58:29.767Z,1.90
2022-07-29T03:01:01.924Z,1.95
2022-07-29T03:03:31.076Z,2.03
2022-07-29T03:05:58.548Z,1.95
2022-07-29T03:08:25.372Z,2.20
2022-07-29T03:10:52.169Z,2.17
2022-07-29T03:13:19.409Z,2.20
2022-07-29T03:15:46.247Z,2.35
2022-07-29T03:18:12.773Z,2.30
2022-07-29T03:20:39.634Z,2.40
2022-07-29T03:23:06.013Z,2.10
2022-07-29T03:25:32.320Z,2.15
2022-07-29T03:27:58.589Z,2.30
2022-07-29T03:30:24.868Z,2.35
2022-07-29T03:32:52.317Z,2.50
2022-07-29T03:35:19.210Z,2.28
2022-07-29T03:37:46.067Z,2.45
2022-07-29T03:40:14.960Z,2.40
2022-07-29T03:42:43.375Z,2.30
2022-07-29T03:45:11.993Z,2.45
2022-07-29T03:47:50.391Z,2.47
2022-07-29T03:50:20.351Z,2.08
2022-07-29T03:52:47.355Z,2.40
2022-07-29T03:55:14.478Z,2.33
2022-07-29T03:57:41.117Z,2.50
2022-07-29T04:00:07.761Z,2.25
2022-07-29T04:02:34.156Z,2.40
2022-07-29T04:05:00.586Z,2.55
2022-07-29T04:07:26.908Z,2.45
2022-07-29T04:09:53.232Z,2.25
2022-07-29T04:12:19.540Z,2.40
2022-07-29T04:14:45.831Z,2.42
2022-07-29T04:17:12.124Z,2.30
2022-07-29T04:19:38.493Z,2.20
2022-07-29T04:22:04.895Z,2.22
2022-07-29T04:24:31.265Z,2.30
2022-07-29T04:26:57.600Z,1.90
2022-07-29T04:29:23.897Z,2.10
2022-07-29T04:31:50.213Z,2.05
2022-07-29T04:34:17.017Z,2.20
2022-07-29T04:36:43.535Z,2.40
2022-07-29T04:39:10.934Z,2.30
2022-07-29T04:41:37.944Z,2.10
2022-07-29T04:44:06.907Z,1.80
2022-07-29T04:46:33.663Z,2.70
2022-07-29T04:49:00.155Z,1.85
2022-07-29T04:51:26.630Z,2.25
2022-07-29T04:53:52.933Z,2.28
2022-07-29T04:56:19.247Z,2.22
2022-07-29T04:58:45.515Z,2.00
2022-07-29T05:01:11.889Z,2.10
2022-07-29T05:03:38.421Z,2.67
2022-07-29T05:06:04.699Z,2.25
2022-07-29T05:08:30.992Z,2.17
2022-07-29T05:10:57.251Z,2.40
2022-07-29T05:13:23.567Z,2.30
2022-07-29T05:15:49.965Z,2.30
2022-07-29T05:18:16.427Z,2.20
2022-07-29T05:20:42.745Z,2.45
2022-07-29T05:23:09.015Z,2.38
2022-07-29T05:25:42.971Z,2.08
2022-07-29T05:28:10.834Z,2.10
2022-07-29T05:30:37.316Z,2.10
2022-07-29T05:33:03.683Z,2.13
2022-07-29T05:35:29.972Z,2.33
2022-07-29T05:37:56.254Z,2.38
2022-07-29T05:40:22.601Z,2.05
2022-07-29T05:42:48.900Z,2.25
2022-07-29T05:45:15.186Z,2.60
2022-07-29T05:47:41.473Z,2.47
2022-07-29T05:50:07.998Z,2.25
2022-07-29T05:52:34.273Z,2.03
2022-07-29T05:55:03.696Z,2.47
2022-07-29T05:57:29.981Z,2.53
2022-07-29T05:59:56.287Z,2.58
2022-07-29T06:02:22.539Z,2.30
2022-07-29T06:04:49.599Z,2.38
2022-07-29T06:07:17.067Z,2.20
2022-07-29T06:09:43.415Z,2.33
2022-07-29T06:12:10.111Z,2.40
2022-07-29T06:14:36.739Z,2.20
2022-07-29T06:17:03.049Z,2.50
2022-07-29T06:19:29.324Z,2.38
2022-07-29T06:21:55.623Z,2.50
2022-07-29T06:24:21.877Z,2.30
2022-07-29T06:26:48.211Z,2.13
2022-07-29T06:29:14.515Z,2.25
2022-07-29T06:31:40.874Z,2.45
2022-07-29T06:34:07.519Z,2.40
2022-07-29T06:36:37.838Z,2.40
2022-07-29T06:39:05.024Z,2.30
2022-07-29T06:41:32.428Z,2.55
2022-07-29T06:43:58.928Z,2.22
2022-07-29T06:46:25.231Z,2.72
2022-07-29T06:48:53.073Z,2.40
2022-07-29T06:51:22.721Z,2.63
2022-07-29T06:54:00.305Z,2.97
2022-07-29T06:56:29.812Z,2.78
2022-07-29T06:58:56.118Z,2.60
2022-07-29T07:01:22.575Z,2.50
2022-07-29T07:03:49.052Z,2.70
2022-07-29T07:06:15.465Z,2.63
2022-07-29T07:08:41.828Z,3.08
2022-07-29T07:11:08.238Z,2.35
2022-07-29T07:13:36.735Z,2.60
2022-07-29T07:16:03.657Z,2.70
2022-07-29T07:18:30.035Z,2.65
2022-07-29T07:20:57.376Z,2.95
2022-07-29T07:23:24.012Z,2.90
2022-07-29T07:25:50.315Z,2.50
2022-07-29T07:28:16.638Z,2.58
2022-07-29T07:30:42.970Z,2.55
2022-07-29T07:33:09.293Z,2.78
2022-07-29T07:35:35.809Z,2.88
2022-07-29T07:38:02.175Z,2.78
2022-07-29T07:40:28.443Z,2.40
2022-07-29T07:42:54.763Z,2.38
2022-07-29T07:45:21.176Z,2.75
2022-07-29T07:47:47.683Z,2.80
2022-07-29T07:50:18.715Z,2.80
2022-07-29T07:52:52.788Z,2.60
2022-07-29T07:55:19.855Z,2.50
2022-07-29T07:57:46.420Z,2.40
2022-07-29T08:00:13.742Z,2.25
2022-07-29T08:02:40.493Z,2.70
2022-07-29T08:05:07.751Z,2.30
2022-07-29T08:07:39.061Z,2.53
2022-07-29T08:10:05.635Z,2.53
2022-07-29T08:12:31.982Z,2.60
2022-07-29T08:14:58.309Z,2.60
2022-07-29T08:17:24.645Z,2.67
2022-07-29T08:19:51.192Z,2.55
2022-07-29T08:22:17.539Z,2.40
2022-07-29T08:24:43.836Z,2.30
2022-07-29T08:27:40.817Z,2.40
2022-07-29T08:29:59.691Z,2.40
2022-07-29T08:32:50.791Z,2.72
2022-07-29T08:35:12.631Z,2.30
2022-07-29T08:37:38.920Z,2.40
2022-07-29T08:40:07.038Z,2.50
2022-07-29T08:42:33.395Z,2.30
2022-07-29T08:44:59.656Z,2.47
2022-07-29T08:47:27.363Z,2.33
2022-07-29T08:49:53.650Z,2.10
2022-07-29T08:52:20.676Z,2.40
2022-07-29T08:54:47.033Z,2.47
2022-07-29T08:57:17.435Z,2.00
2022-07-29T08:59:45.610Z,2.15
2022-07-29T09:02:20.317Z,2.35
2022-07-29T09:04:46.607Z,2.20
2022-07-29T09:07:15.844Z,2.03
2022-07-29T09:09:43.599Z,2.00
2022-07-29T09:12:12.311Z,2.40
2022-07-29T09:14:42.140Z,2.08
2022-07-29T09:17:08.487Z,2.08
2022-07-29T09:19:38.449Z,2.40
2022-07-29T09:22:12.998Z,2.20
2022-07-29T09:24:42.014Z,2.40
2022-07-29T09:27:26.808Z,1.90
2022-07-29T09:30:04.623Z,2.00
2022-07-29T09:32:30.941Z,2.00
2022-07-29T09:35:16.672Z,2.38
2022-07-29T09:37:43.731Z,3.00
2022-07-29T09:40:28.911Z,2.22
2022-07-29T09:42:58.441Z,1.85
2022-07-29T09:45:32.269Z,2.50
2022-07-29T09:48:04.209Z,2.20
2022-07-29T09:50:37.663Z,1.90
2022-07-29T09:53:03.936Z,2.03
2022-07-29T09:55:30.297Z,1.77
2022-07-29T09:58:15.555Z,1.40
2022-07-29T10:00:45.218Z,1.60
2022-07-29T10:03:11.926Z,1.65
2022-07-29T10:05:40.395Z,1.65
2022-07-29T10:08:06.843Z,2.03
2022-07-29T10:10:37.620Z,1.85
2022-07-29T10:13:12.207Z,1.63
2022-07-29T10:15:44.621Z,2.15
2022-07-29T10:18:14.355Z,2.25
2022-07-29T10:20:40.898Z,1.83
2022-07-29T10:23:07.185Z,1.95
2022-07-29T10:25:33.761Z,2.03
2022-07-29T10:28:00.109Z,1.85
2022-07-29T10:30:26.964Z,2.03
2022-07-29T10:32:54.356Z,1.70
2022-07-29T10:35:41.108Z,1.83
2022-07-29T10:38:31.673Z,1.88
2022-07-29T10:41:27.483Z,2.20
2022-07-29T10:44:17.461Z,2.17
2022-07-29T10:46:46.129Z,2.00
2022-07-29T10:49:15.402Z,1.63
2022-07-29T10:52:00.879Z,1.83
2022-07-29T10:54:36.097Z,2.05
2022-07-29T10:57:17.920Z,2.15
2022-07-29T10:59:46.072Z,1.83
2022-07-29T11:02:42.196Z,2.35
2022-07-29T11:05:14.507Z,1.90
2022-07-29T11:08:00.729Z,2.10
2022-07-29T11:10:31.402Z,2.00
2022-07-29T11:12:59.072Z,2.13
2022-07-29T11:15:25.344Z,1.90
2022-07-29T11:17:55.083Z,1.70
2022-07-29T11:20:37.743Z,2.03
2022-07-29T11:23:19.309Z,1.77
2022-07-29T11:25:52.345Z,2.00
2022-07-29T11:31:10.201Z,1.95
2022-07-29T11:33:56.125Z,1.80
2022-07-29T11:36:28.410Z,2.20
2022-07-29T11:39:14.815Z,2.05
2022-07-29T11:41:41.504Z,2.17
2022-07-29T11:44:09.104Z,1.95
2022-07-29T11:46:46.777Z,1.90
2022-07-29T11:49:13.937Z,2.00
2022-07-29T11:51:48.333Z,2.10
2022-07-29T11:54:18.584Z,2.50
2022-07-29T11:56:54.110Z,2.70
2022-07-29T11:59:21.009Z,1.95
2022-07-29T12:02:32.924Z,1.98
2022-07-29T12:04:53.369Z,2.13
2022-07-29T12:07:03.373Z,2.10
2022-07-29T12:07:35.288Z,2.30
2022-07-29T12:10:02.982Z,2.28
2022-07-29T12:12:29.300Z,2.35
2022-07-29T12:14:56.317Z,2.30
2022-07-29T12:17:26.712Z,2.20
2022-07-29T12:19:57.604Z,2.17
2022-07-29T12:22:34.528Z,2.08
2022-07-29T12:25:31.996Z,1.80
2022-07-29T12:28:01.327Z,2.10
2022-07-29T12:30:39.868Z,2.10
2022-07-29T12:33:11.734Z,2.33
2022-07-29T12:38:04.271Z,2.20
2022-07-29T12:40:30.598Z,2.20
2022-07-29T12:43:08.235Z,2.33
2022-07-29T12:45:34.596Z,2.30
2022-07-29T12:48:00.883Z,2.30
2022-07-29T12:50:27.151Z,2.20
2022-07-29T12:52:53.423Z,2.20
2022-07-29T12:55:49.614Z,2.20
2022-07-29T12:58:29.501Z,2.22
2022-07-29T13:01:09.552Z,2.50
2022-07-29T13:03:56.788Z,2.50
2022-07-29T13:06:30.362Z,2.13
2022-07-29T13:09:00.373Z,2.20
2022-07-29T13:14:06.763Z,2.20
2022-07-29T13:16:33.647Z,2.38
2022-07-29T13:19:07.087Z,2.40
2022-07-29T13:21:33.807Z,2.05
2022-07-29T13:24:00.221Z,1.90
2022-07-29T13:26:26.543Z,1.92
2022-07-29T13:28:52.830Z,1.67
2022-07-29T13:31:19.116Z,2.03
2022-07-29T13:33:45.525Z,2.30
2022-07-29T13:36:11.803Z,1.80
2022-07-29T13:38:38.113Z,2.20
2022-07-29T13:41:04.404Z,2.40
2022-07-29T13:43:31.898Z,2.30
2022-07-29T13:45:58.244Z,2.20
2022-07-29T13:48:24.571Z,1.83
2022-07-29T13:50:51.028Z,4.05
2022-07-29T13:53:18.175Z,3.83
2022-07-29T13:55:44.955Z,2.55
2022-07-29T13:58:11.364Z,2.28
2022-07-29T14:00:37.639Z,2.30
2022-07-29T14:03:03.907Z,2.28
2022-07-29T14:05:30.217Z,2.08
2022-07-29T14:07:56.566Z,1.95
2022-07-29T14:10:25.294Z,1.75
2022-07-29T14:12:51.564Z,2.35
2022-07-29T14:15:18.198Z,1.85
2022-07-29T14:17:44.466Z,2.13
2022-07-29T14:20:10.781Z,1.80
2022-07-29T14:22:42.446Z,2.13
2022-07-29T14:25:15.188Z,2.20
2022-07-29T14:27:42.176Z,2.67
2022-07-29T14:30:08.875Z,2.03
2022-07-29T14:32:35.971Z,2.65
2022-07-29T14:35:02.301Z,2.20
2022-07-29T14:37:28.642Z,2.30
2022-07-29T14:40:06.663Z,1.90
2022-07-29T14:42:33.190Z,2.30
2022-07-29T14:44:59.489Z,2.20
2022-07-29T14:47:26.070Z,2.20
2022-07-29T14:49:52.408Z,2.17
2022-07-29T14:52:18.706Z,2.50
2022-07-29T14:54:44.999Z,2.20
2022-07-29T14:57:11.855Z,2.15
2022-07-29T14:59:38.152Z,2.50
2022-07-29T15:02:04.633Z,2.58
2022-07-29T15:04:31.235Z,2.35
2022-07-29T15:06:57.591Z,2.60
2022-07-29T15:09:23.942Z,2.60
2022-07-29T15:11:50.307Z,2.63
2022-07-29T15:14:25.594Z,2.15
2022-07-29T15:16:52.855Z,2.20
2022-07-29T15:19:19.324Z,2.15
2022-07-29T15:21:48.537Z,2.15
2022-07-29T15:24:16.222Z,2.03
2022-07-29T15:26:43.782Z,2.08
2022-07-29T15:29:13.061Z,1.65
2022-07-29T15:31:39.415Z,2.03
2022-07-29T15:34:07.045Z,1.85
2022-07-29T15:36:51.478Z,2.00
2022-07-29T15:39:18.855Z,2.22
2022-07-29T15:41:45.135Z,1.85
2022-07-29T15:44:11.518Z,2.40
2022-07-29T15:46:56.525Z,1.40
2022-07-29T15:49:23.115Z,1.70
2022-07-29T15:51:49.453Z,1.85
2022-07-29T15:54:17.493Z,2.28
2022-07-29T15:56:43.768Z,1.70
2022-07-29T15:59:10.100Z,1.50
2022-07-29T16:01:49.085Z,1.50
2022-07-29T16:04:15.811Z,1.48
2022-07-29T16:06:42.313Z,1.63
2022-07-29T16:09:08.759Z,1.90
2022-07-29T16:11:35.144Z,1.65
2022-07-29T16:14:01.641Z,1.60
2022-07-29T16:16:28.238Z,2.05
2022-07-29T16:18:54.595Z,3.55
2022-07-29T16:21:22.708Z,1.77
2022-07-29T16:23:49.188Z,1.40
2022-07-29T16:26:15.551Z,1.40
2022-07-29T16:28:41.959Z,1.88
2022-07-29T16:31:09.080Z,1.63
2022-07-29T16:33:54.691Z,1.55
2022-07-29T16:36:22.288Z,1.63
2022-07-29T16:38:48.608Z,1.30
2022-07-29T16:41:15.068Z,1.55
2022-07-29T16:43:41.376Z,1.50
2022-07-29T16:46:09.024Z,1.80
2022-07-29T16:48:41.971Z,1.27
2022-07-29T16:51:08.799Z,1.70
2022-07-29T16:53:35.206Z,1.48
2022-07-29T16:56:01.526Z,2.00
2022-07-29T16:58:27.811Z,1.50
2022-07-29T17:00:54.144Z,1.80
2022-07-29T17:03:20.556Z,2.60
2022-07-29T17:05:50.661Z,2.42
2022-07-29T17:08:23.367Z,2.03
2022-07-29T17:10:51.779Z,1.80
2022-07-29T17:13:27.613Z,1.63
2022-07-29T17:15:56.490Z,1.67
2022-07-29T17:18:26.655Z,2.10
2022-07-29T17:20:52.956Z,2.05
2022-07-29T17:23:19.216Z,2.45
2022-07-29T17:25:48.261Z,2.03
2022-07-29T17:28:14.550Z,1.80
2022-07-29T17:30:40.869Z,2.08
2022-07-29T17:33:07.203Z,1.77
2022-07-29T17:35:52.356Z,2.10
2022-07-29T17:38:18.656Z,2.00
2022-07-29T17:40:45.042Z,2.20
2022-07-29T17:43:11.388Z,2.05
2022-07-29T17:45:48.852Z,1.70
2022-07-29T17:48:15.617Z,1.77
2022-07-29T17:50:41.891Z,2.00
2022-07-29T17:53:15.691Z,1.75
2022-07-29T17:55:45.083Z,1.50
2022-07-29T17:58:11.453Z,2.05
2022-07-29T18:00:37.791Z,2.03
2022-07-29T18:03:04.166Z,2.50
2022-07-29T18:05:30.562Z,2.10
2022-07-29T18:07:56.864Z,2.10
2022-07-29T18:10:23.286Z,2.20
2022-07-29T18:12:49.549Z,1.95
2022-07-29T18:15:15.936Z,1.90
2022-07-29T18:17:57.086Z,1.75
2022-07-29T18:20:24.379Z,2.22
2022-07-29T18:22:51.125Z,2.00
2022-07-29T18:25:17.427Z,1.80
2022-07-29T18:27:43.723Z,1.98
2022-07-29T18:30:10.177Z,2.00
2022-07-29T18:32:36.569Z,1.90
2022-07-29T18:35:05.063Z,2.17
2022-07-29T18:38:01.217Z,2.28
2022-07-29T18:40:19.617Z,2.28
2022-07-29T18:42:45.898Z,1.80
2022-07-29T18:45:12.451Z,1.92
2022-07-29T18:47:47.588Z,1.55
2022-07-29T18:50:14.008Z,1.73
2022-07-29T18:52:42.692Z,2.50
2022-07-29T18:55:09.024Z,2.10
2022-07-29T18:57:54.313Z,2.20
2022-07-29T19:00:22.474Z,2.70
2022-07-29T19:02:49.086Z,3.65
2022-07-29T19:05:15.505Z,3.03
2022-07-29T19:07:41.829Z,2.83
2022-07-29T19:10:08.392Z,2.70
2022-07-29T19:12:34.776Z,2.40
2022-07-29T19:15:01.176Z,2.80
2022-07-29T19:17:27.447Z,2.80
2022-07-29T19:19:53.852Z,3.10
2022-07-29T19:22:22.427Z,2.85
2022-07-29T19:24:49.535Z,3.08
2022-07-29T19:27:17.082Z,2.58
2022-07-29T19:29:43.491Z,2.70
2022-07-29T19:32:09.996Z,2.50
2022-07-29T19:34:36.573Z,2.42
2022-07-29T19:37:03.351Z,3.03
2022-07-29T19:39:34.753Z,2.80
2022-07-29T19:42:03.532Z,3.13
2022-07-29T19:44:30.011Z,3.08
2022-07-29T19:46:56.526Z,3.20
2022-07-29T19:49:23.146Z,3.10
2022-07-29T19:51:49.487Z,3.20
2022-07-29T19:54:18.089Z,3.10
2022-07-29T19:56:45.050Z,2.53
2022-07-29T19:59:11.831Z,3.20
2022-07-29T20:01:38.759Z,2.80
2022-07-29T20:04:05.073Z,3.13
2022-07-29T20:06:31.372Z,3.05
2022-07-29T20:08:58.949Z,3.15
2022-07-29T20:11:26.377Z,3.75
2022-07-29T20:13:52.668Z,3.55
2022-07-29T20:16:19.035Z,3.60
2022-07-29T20:18:45.397Z,3.70
2022-07-29T20:21:11.662Z,3.63
2022-07-29T20:23:38.000Z,4.10
2022-07-29T20:26:09.270Z,3.90
2022-07-29T20:28:35.923Z,4.03
2022-07-29T20:31:02.247Z,4.32
2022-07-29T20:33:28.607Z,4.75
2022-07-29T20:35:54.965Z,3.97
2022-07-29T20:38:23.719Z,4.22
2022-07-29T20:40:50.770Z,4.18
2022-07-29T20:43:19.236Z,3.55
2022-07-29T20:45:45.863Z,4.07
2022-07-29T20:48:13.795Z,4.25
2022-07-29T20:50:40.076Z,3.70
2022-07-29T20:53:09.387Z,4.20
2022-07-29T20:55:35.685Z,4.40
2022-07-29T20:58:02.087Z,4.22
2022-07-29T21:00:28.748Z,4.13
2022-07-29T21:02:55.091Z,4.10
2022-07-29T21:05:21.440Z,4.28
2022-07-29T21:07:47.869Z,4.45
2022-07-29T21:10:18.192Z,4.47
2022-07-29T21:12:50.736Z,4.28
2022-07-29T21:15:20.359Z,4.53
2022-07-29T21:17:51.898Z,4.70
2022-07-29T21:20:21.171Z,4.80
2022-07-29T21:22:47.481Z,4.15
2022-07-29T21:25:13.840Z,4.32
2022-07-29T21:27:58.957Z,4.35
2022-07-29T21:30:25.224Z,4.65
2022-07-29T21:32:51.592Z,4.20
2022-07-29T21:36:01.977Z,4.50
2022-07-29T21:38:04.187Z,4.40
2022-07-29T21:40:30.523Z,4.40
2022-07-29T21:42:56.853Z,4.22
2022-07-29T21:45:23.206Z,4.07
2022-07-29T21:47:49.463Z,4.40
2022-07-29T21:50:15.752Z,4.70
2022-07-29T21:52:42.075Z,4.63
2022-07-29T21:55:10.663Z,4.72
2022-07-29T21:57:37.930Z,4.07
2022-07-29T22:00:05.471Z,4.43
2022-07-29T22:02:31.728Z,4.30
2022-07-29T22:04:58.023Z,4.10
2022-07-29T22:07:24.583Z,4.63
2022-07-29T22:10:10.823Z,3.90
2022-07-29T22:12:37.149Z,4.13
2022-07-29T22:15:04.020Z,3.75
2022-07-29T22:17:30.280Z,4.20
2022-07-29T22:19:58.346Z,4.32
2022-07-29T22:22:24.680Z,3.75
2022-07-29T22:24:51.163Z,4.30
2022-07-29T22:27:17.487Z,4.25
2022-07-29T22:29:43.783Z,5.05
2022-07-29T22:32:10.171Z,4.10
2022-07-29T22:34:37.798Z,4.00
2022-07-29T22:37:04.418Z,4.10
2022-07-29T22:39:30.752Z,4.05
2022-07-29T22:41:57.064Z,3.97
2022-07-29T22:44:23.367Z,4.40
2022-07-29T22:46:49.628Z,4.00
2022-07-29T22:49:16.073Z,3.88
2022-07-29T22:51:42.413Z,4.82
2022-07-29T22:54:08.714Z,4.13
2022-07-29T22:56:35.000Z,4.22
2022-07-29T22:59:01.319Z,4.32
2022-07-29T23:01:37.258Z,4.00
2022-07-29T23:04:04.648Z,4.47
2022-07-29T23:06:31.008Z,4.40
2022-07-29T23:08:57.263Z,4.38
2022-07-29T23:11:23.635Z,4.22
2022-07-29T23:13:49.935Z,4.63
2022-07-29T23:16:16.303Z,4.40
2022-07-29T23:18:53.161Z,4.30
2022-07-29T23:21:20.755Z,4.60
2022-07-29T23:23:48.352Z,4.70
2022-07-29T23:26:16.759Z,4.55
2022-07-29T23:28:43.956Z,4.80
2022-07-29T23:31:10.357Z,4.78
2022-07-29T23:33:36.721Z,4.32
2022-07-29T23:36:03.202Z,4.82
2022-07-29T23:38:29.484Z,4.88
2022-07-29T23:40:55.770Z,4.68
2022-07-29T23:43:22.036Z,4.35
2022-07-29T23:45:48.796Z,4.53
2022-07-29T23:48:15.352Z,4.43
2022-07-29T23:50:41.855Z,4.20
2022-07-29T23:53:08.173Z,4.18
2022-07-29T23:55:37.846Z,4.00
2022-07-29T23:58:05.234Z,4.28
